createdAt,value
2022-09-04T00:00:17.186Z,21.20
2022-09-04T00:03:16.912Z,21.19
2022-09-04T00:05:57.723Z,21.19
2022-09-04T00:08:33.909Z,21.23
2022-09-04T00:11:16.550Z,21.24
2022-09-04T00:13:58.967Z,21.26
2022-09-04T00:16:37.438Z,21.26
2022-09-04T00:19:55.404Z,21.29
2022-09-04T00:22:43.550Z,21.29
2022-09-04T00:25:33.927Z,21.31
2022-09-04T00:28:32.716Z,21.34
2022-09-04T00:31:30.278Z,21.34
2022-09-04T00:34:43.459Z,21.35
2022-09-04T00:37:18.219Z,21.38
2022-09-04T00:40:01.263Z,21.41
2022-09-04T00:42:31.144Z,21.43
2022-09-04T00:45:19.321Z,21.47
2022-09-04T00:48:02.876Z,21.48
2022-09-04T00:50:51.140Z,21.51
2022-09-04T00:54:05.692Z,21.55
2022-09-04T00:57:01.786Z,21.58
2022-09-04T01:00:09.119Z,21.60
2022-09-04T01:03:03.367Z,21.62
2022-09-04T01:05:35.000Z,21.64
2022-09-04T01:08:25.566Z,21.66
2022-09-04T01:11:34.359Z,21.69
2022-09-04T01:14:44.514Z,21.71
2022-09-04T01:17:18.944Z,21.71
2022-09-04T01:19:51.958Z,21.77
2022-09-04T01:22:57.042Z,21.81
2022-09-04T01:25:44.788Z,21.86
2022-09-04T01:28:43.492Z,21.88
2022-09-04T01:31:19.719Z,21.91
2022-09-04T01:33:56.134Z,21.95
2022-09-04T01:37:02.015Z,22.00
2022-09-04T01:39:36.319Z,22.04
2022-09-04T01:42:19.704Z,22.08
2022-09-04T01:44:50.759Z,22.14
2022-09-04T01:47:42.864Z,22.19
2022-09-04T01:50:20.587Z,22.22
2022-09-04T01:53:00.825Z,22.27
2022-09-04T01:55:51.688Z,22.30
2022-09-04T01:58:50.066Z,22.36
2022-09-04T02:01:45.740Z,22.38
2022-09-04T02:05:01.513Z,22.42
2022-09-04T02:08:00.820Z,22.46
2022-09-04T02:10:51.666Z,22.48
2022-09-04T02:13:47.316Z,22.49
2022-09-04T02:16:32.226Z,22.51
2022-09-04T02:19:16.644Z,22.54
2022-09-04T02:21:58.795Z,22.57
2022-09-04T02:24:59.537Z,22.59
2022-09-04T02:28:03.337Z,22.62
2022-09-04T02:31:01.907Z,22.66
2022-09-04T02:33:49.332Z,22.71
2022-09-04T02:36:25.600Z,22.78
2022-09-04T02:39:15.759Z,22.83
2022-09-04T02:42:01.899Z,22.90
2022-09-04T02:44:48.938Z,23.00
2022-09-04T02:47:21.997Z,23.09
2022-09-04T02:50:04.729Z,23.20
2022-09-04T02:52:48.869Z,23.29
2022-09-04T02:55:23.079Z,23.38
2022-09-04T02:58:22.361Z,23.46
2022-09-04T03:01:00.531Z,23.57
2022-09-04T03:03:53.478Z,23.64
2022-09-04T03:06:32.601Z,23.66
2022-09-04T03:09:10.608Z,23.72
2022-09-04T03:12:07.826Z,23.76
2022-09-04T03:14:54.235Z,23.86
2022-09-04T03:17:28.944Z,23.90
2022-09-04T03:20:11.788Z,23.93
2022-09-04T03:22:49.907Z,23.96
2022-09-04T03:25:35.576Z,24.00
2022-09-04T03:28:07.389Z,24.04
2022-09-04T03:30:39.779Z,24.07
2022-09-04T03:33:29.560Z,24.12
2022-09-04T03:36:24.117Z,24.17
2022-09-04T03:39:23.762Z,24.25
2022-09-04T03:42:38.205Z,24.34
2022-09-04T03:45:40.590Z,24.41
2022-09-04T03:48:51.796Z,24.46
2022-09-04T03:51:38.142Z,24.42
2022-09-04T03:54:21.011Z,24.37
2022-09-04T03:57:21.043Z,24.43
2022-09-04T04:00:12.449Z,24.49
2022-09-04T04:02:52.924Z,24.55
2022-09-04T04:06:03.838Z,24.64
2022-09-04T04:08:52.435Z,24.69
2022-09-04T04:12:02.192Z,24.72
2022-09-04T04:14:39.570Z,24.79
2022-09-04T04:17:27.991Z,24.84
2022-09-04T04:20:21.536Z,24.86
2022-09-04T04:23:23.820Z,24.89
2022-09-04T04:26:54.692Z,24.92
2022-09-04T04:29:31.678Z,24.93
2022-09-04T04:32:26.957Z,24.95
2022-09-04T04:34:56.843Z,24.98
2022-09-04T04:37:44.978Z,25.01
2022-09-04T04:40:50.025Z,25.04
2022-09-04T04:43:35.981Z,25.02
2022-09-04T04:46:21.505Z,24.99
2022-09-04T04:48:54.517Z,24.97
2022-09-04T04:51:51.514Z,24.97
2022-09-04T04:54:46.783Z,24.99
2022-09-04T04:58:15.210Z,25.01
2022-09-04T05:00:48.491Z,25.04
2022-09-04T05:03:38.127Z,25.08
2022-09-04T05:06:24.737Z,25.15
2022-09-04T05:09:23.080Z,25.17
2022-09-04T05:12:01.668Z,25.23
2022-09-04T05:14:43.697Z,25.27
2022-09-04T05:17:32.016Z,25.34
2022-09-04T05:20:26.947Z,25.35
2022-09-04T05:23:10.995Z,25.36
2022-09-04T05:25:59.428Z,25.37
2022-09-04T05:28:57.283Z,25.40
2022-09-04T05:31:27.464Z,25.45
2022-09-04T05:34:20.970Z,25.47
2022-09-04T05:37:06.350Z,25.48
2022-09-04T05:39:51.768Z,25.49
2022-09-04T05:42:58.124Z,25.53
2022-09-04T05:45:51.042Z,25.56
2022-09-04T05:48:28.016Z,25.62
2022-09-04T05:51:04.189Z,25.69
2022-09-04T05:53:40.246Z,25.78
2022-09-04T05:56:42.282Z,25.86
2022-09-04T05:59:15.533Z,25.88
2022-09-04T06:02:24.334Z,25.94
2022-09-04T06:05:15.754Z,25.96
2022-09-04T06:08:13.440Z,26.00
2022-09-04T06:11:19.729Z,26.07
2022-09-04T06:13:57.451Z,26.16
2022-09-04T06:16:48.366Z,26.22
2022-09-04T06:20:03.019Z,26.24
2022-09-04T06:22:55.011Z,26.24
2022-09-04T06:25:28.082Z,26.23
2022-09-04T06:28:07.713Z,26.26
2022-09-04T06:31:03.298Z,26.31
2022-09-04T06:33:38.679Z,26.35
2022-09-04T06:36:29.985Z,26.38
2022-09-04T06:39:27.235Z,26.38
2022-09-04T06:42:23.319Z,26.42
2022-09-04T06:45:22.609Z,26.45
2022-09-04T06:47:52.943Z,26.50
2022-09-04T06:50:35.063Z,26.53
2022-09-04T06:53:20.383Z,26.58
2022-09-04T06:56:12.745Z,26.60
2022-09-04T06:59:01.523Z,26.63
2022-09-04T07:01:52.432Z,26.69
2022-09-04T07:04:47.227Z,26.72
2022-09-04T07:08:02.653Z,26.74
2022-09-04T07:10:53.366Z,26.74
2022-09-04T07:14:02.478Z,26.79
2022-09-04T07:17:10.828Z,26.82
2022-09-04T07:19:59.170Z,26.86
2022-09-04T07:22:50.566Z,26.88
2022-09-04T07:25:39.356Z,26.89
2022-09-04T07:28:32.457Z,26.94
2022-09-04T07:31:12.125Z,26.97
2022-09-04T07:34:06.647Z,26.99
2022-09-04T07:37:24.997Z,27.01
2022-09-04T07:40:16.607Z,27.02
2022-09-04T07:43:01.562Z,27.05
2022-09-04T07:45:52.673Z,27.07
2022-09-04T07:48:53.003Z,27.08
2022-09-04T07:51:32.124Z,27.09
2022-09-04T07:54:27.662Z,27.11
2022-09-04T07:57:09.785Z,27.14
2022-09-04T08:00:08.003Z,27.19
2022-09-04T08:03:18.242Z,27.23
2022-09-04T08:06:07.334Z,27.22
2022-09-04T08:08:58.771Z,27.24
2022-09-04T08:11:37.923Z,27.24
2022-09-04T08:14:47.185Z,27.25
2022-09-04T08:18:02.875Z,27.26
2022-09-04T08:21:08.330Z,27.29
2022-09-04T08:24:18.310Z,27.29
2022-09-04T08:27:21.910Z,27.33
2022-09-04T08:30:07.224Z,27.35
2022-09-04T08:32:55.855Z,27.38
2022-09-04T08:35:31.982Z,27.37
2022-09-04T08:38:24.455Z,27.36
2022-09-04T08:41:00.104Z,27.38
2022-09-04T08:44:13.314Z,27.38
2022-09-04T08:46:59.557Z,27.39
2022-09-04T08:49:47.930Z,27.36
2022-09-04T08:52:42.241Z,27.33
2022-09-04T08:55:36.862Z,27.29
2022-09-04T08:58:36.604Z,27.25
2022-09-04T09:01:21.143Z,27.19
2022-09-04T09:04:09.828Z,27.16
2022-09-04T09:06:52.641Z,27.10
2022-09-04T09:09:53.708Z,27.02
2022-09-04T09:12:41.927Z,26.96
2022-09-04T09:15:49.610Z,26.95
2022-09-04T09:18:41.480Z,26.92
2022-09-04T09:21:32.537Z,26.88
2022-09-04T09:24:20.403Z,26.86
2022-09-04T09:27:36.143Z,26.82
2022-09-04T09:30:32.220Z,26.80
2022-09-04T09:33:24.213Z,26.77
2022-09-04T09:36:33.785Z,26.74
2022-09-04T09:39:35.508Z,26.69
2022-09-04T09:42:33.992Z,26.64
2022-09-04T09:45:28.713Z,26.60
2022-09-04T09:48:43.946Z,26.53
2022-09-04T09:51:26.336Z,26.47
2022-09-04T09:54:14.325Z,26.39
2022-09-04T09:57:03.208Z,26.31
2022-09-04T09:59:54.955Z,26.21
2022-09-04T10:02:41.542Z,26.12
2022-09-04T10:05:38.769Z,26.04
2022-09-04T10:08:58.320Z,25.97
2022-09-04T10:12:25.581Z,25.91
2022-09-04T10:15:08.043Z,25.85
2022-09-04T10:18:14.923Z,25.81
2022-09-04T10:20:56.750Z,25.76
2022-09-04T10:23:55.376Z,25.73
2022-09-04T10:26:43.318Z,25.67
2022-09-04T10:29:35.858Z,25.65
2022-09-04T10:32:36.143Z,25.61
2022-09-04T10:35:55.979Z,25.57
2022-09-04T10:39:12.556Z,25.49
2022-09-04T10:42:00.976Z,25.38
2022-09-04T10:44:56.081Z,25.28
2022-09-04T10:47:26.486Z,25.20
2022-09-04T10:50:02.457Z,25.16
2022-09-04T10:52:57.334Z,25.01
2022-09-04T10:56:01.722Z,24.71
2022-09-04T10:58:34.789Z,24.39
2022-09-04T11:01:11.705Z,24.13
2022-09-04T11:04:15.083Z,23.82
2022-09-04T11:07:12.656Z,23.55
2022-09-04T11:10:02.347Z,23.39
2022-09-04T11:12:53.549Z,23.31
2022-09-04T11:15:38.407Z,23.24
2022-09-04T11:18:30.483Z,23.12
2022-09-04T11:21:15.481Z,22.98
2022-09-04T11:24:24.451Z,22.86
2022-09-04T11:27:13.176Z,22.75
2022-09-04T11:30:05.511Z,22.66
2022-09-04T11:32:53.409Z,22.60
2022-09-04T11:35:28.484Z,22.47
2022-09-04T11:38:09.786Z,22.42
2022-09-04T11:41:00.314Z,22.38
2022-09-04T11:43:31.836Z,22.35
2022-09-04T11:46:35.788Z,22.33
2022-09-04T11:49:32.813Z,22.29
2022-09-04T11:52:26.314Z,22.23
2022-09-04T11:55:15.407Z,22.18
2022-09-04T11:58:07.428Z,22.05
2022-09-04T12:01:00.783Z,21.92
2022-09-04T12:04:07.844Z,21.81
2022-09-04T12:06:52.804Z,21.64
2022-09-04T12:10:10.367Z,21.58
2022-09-04T12:12:59.154Z,21.37
2022-09-04T12:15:48.241Z,21.24
2022-09-04T12:18:52.814Z,21.15
2022-09-04T12:21:50.291Z,20.97
2022-09-04T12:24:23.258Z,20.82
2022-09-04T12:27:13.901Z,20.76
2022-09-04T12:29:55.893Z,20.66
2022-09-04T12:32:35.206Z,20.59
2022-09-04T12:35:22.153Z,20.53
2022-09-04T12:38:19.193Z,20.48
2022-09-04T12:41:09.982Z,20.45
2022-09-04T12:44:03.084Z,20.38
2022-09-04T12:46:56.798Z,20.33
2022-09-04T12:50:00.243Z,20.39
2022-09-04T12:52:52.394Z,20.38
2022-09-04T12:55:54.135Z,20.39
2022-09-04T12:59:11.452Z,20.39
2022-09-04T13:02:05.959Z,20.39
2022-09-04T13:05:07.652Z,20.43
2022-09-04T13:08:09.305Z,20.45
2022-09-04T13:11:13.034Z,20.47
2022-09-04T13:13:50.531Z,20.46
2022-09-04T13:16:39.151Z,20.45
2022-09-04T13:19:20.805Z,20.45
2022-09-04T13:22:15.138Z,20.42
2022-09-04T13:25:10.018Z,20.42
2022-09-04T13:27:58.937Z,20.39
2022-09-04T13:30:31.642Z,20.37
2022-09-04T13:33:19.654Z,20.34
2022-09-04T13:36:18.387Z,20.33
2022-09-04T13:39:06.940Z,20.29
2022-09-04T13:42:03.701Z,20.23
2022-09-04T13:44:39.875Z,20.17
2022-09-04T13:47:32.760Z,20.01
2022-09-04T13:50:45.993Z,20.11
2022-09-04T13:53:32.234Z,20.08
2022-09-04T13:56:11.313Z,20.07
2022-09-04T13:58:58.460Z,19.92
2022-09-04T14:01:31.136Z,20.02
2022-09-04T14:04:14.427Z,20.03
2022-09-04T14:06:46.461Z,20.05
2022-09-04T14:09:18.985Z,20.09
2022-09-04T14:11:59.541Z,20.11
2022-09-04T14:14:50.247Z,20.13
2022-09-04T14:17:29.605Z,20.14
2022-09-04T14:20:22.216Z,20.15
2022-09-04T14:23:11.024Z,20.15
2022-09-04T14:25:55.837Z,20.11
2022-09-04T14:28:30.801Z,20.12
2022-09-04T14:31:24.260Z,20.13
2022-09-04T14:34:15.228Z,20.13
2022-09-04T14:37:24.810Z,20.12
2022-09-04T14:40:12.917Z,20.11
2022-09-04T14:42:57.698Z,20.11
2022-09-04T14:45:53.319Z,20.11
2022-09-04T14:48:25.675Z,20.15
2022-09-04T14:51:12.782Z,20.14
2022-09-04T14:53:54.071Z,20.10
2022-09-04T14:56:57.250Z,20.09
2022-09-04T14:59:34.551Z,20.09
2022-09-04T15:02:14.087Z,20.07
2022-09-04T15:04:50.556Z,20.09
2022-09-04T15:07:31.349Z,20.08
2022-09-04T15:10:21.143Z,20.08
2022-09-04T15:13:13.436Z,20.07
2022-09-04T15:15:49.265Z,20.06
2022-09-04T15:18:33.702Z,20.05
2022-09-04T15:21:28.069Z,20.01
2022-09-04T15:24:40.291Z,20.02
2022-09-04T15:27:22.797Z,19.99
2022-09-04T15:30:05.318Z,19.98
2022-09-04T15:32:44.161Z,19.97
2022-09-04T15:35:14.040Z,19.93
2022-09-04T15:37:53.800Z,19.92
2022-09-04T15:40:33.242Z,19.88
2022-09-04T15:43:44.489Z,19.85
2022-09-04T15:46:48.831Z,19.86
2022-09-04T15:49:57.255Z,19.89
2022-09-04T15:52:42.952Z,19.89
2022-09-04T15:55:33.801Z,19.92
2022-09-04T15:58:41.913Z,19.96
2022-09-04T16:01:52.466Z,19.97
2022-09-04T16:04:45.990Z,19.95
2022-09-04T16:07:21.574Z,19.93
2022-09-04T16:09:54.556Z,19.88
2022-09-04T16:12:32.180Z,19.83
2022-09-04T16:15:07.769Z,19.78
2022-09-04T16:17:50.919Z,19.73
2022-09-04T16:20:54.119Z,19.73
2022-09-04T16:23:41.771Z,19.73
2022-09-04T16:26:18.064Z,19.71
2022-09-04T16:28:57.393Z,19.65
2022-09-04T16:31:36.142Z,19.64
2022-09-04T16:34:23.412Z,19.60
2022-09-04T16:37:03.322Z,19.57
2022-09-04T16:39:52.078Z,19.56
2022-09-04T16:42:31.535Z,19.55
2022-09-04T16:45:19.189Z,19.52
2022-09-04T16:48:03.526Z,19.49
2022-09-04T16:51:09.881Z,19.48
2022-09-04T16:54:20.118Z,19.49
2022-09-04T16:57:12.816Z,19.54
2022-09-04T17:00:00.074Z,19.61
2022-09-04T17:02:38.008Z,19.72
2022-09-04T17:05:34.680Z,19.84
2022-09-04T17:08:14.250Z,19.90
2022-09-04T17:10:56.750Z,20.09
2022-09-04T17:13:46.935Z,20.18
2022-09-04T17:16:33.900Z,20.22
2022-09-04T17:19:03.938Z,20.34
2022-09-04T17:26:00.900Z,20.40
2022-09-04T17:29:07.716Z,20.51
2022-09-04T17:29:12.869Z,20.54
2022-09-04T17:31:19.092Z,20.52
2022-09-04T17:39:01.207Z,20.50
2022-09-04T17:40:48.033Z,20.48
2022-09-04T17:44:18.382Z,20.41
2022-09-04T17:46:57.866Z,20.39
2022-09-04T17:49:36.568Z,20.34
2022-09-04T17:52:11.291Z,20.33
2022-09-04T17:54:49.424Z,20.33
2022-09-04T17:57:27.665Z,20.31
2022-09-04T18:00:04.295Z,20.29
2022-09-04T18:03:03.083Z,20.28
2022-09-04T18:06:03.418Z,20.22
2022-09-04T18:08:55.808Z,20.18
2022-09-04T18:11:41.945Z,20.18
2022-09-04T18:14:21.758Z,20.24
2022-09-04T18:17:11.932Z,20.34
2022-09-04T18:19:45.775Z,20.33
2022-09-04T18:22:26.522Z,20.39
2022-09-04T18:25:16.508Z,20.46
2022-09-04T18:28:12.088Z,20.52
2022-09-04T18:37:06.290Z,20.53
2022-09-04T18:37:15.823Z,20.51
2022-09-04T18:37:44.405Z,20.58
2022-09-04T18:41:43.351Z,20.56
2022-09-04T18:50:28.266Z,20.63
2022-09-04T18:50:33.814Z,20.64
2022-09-04T18:50:43.339Z,20.66
2022-09-04T18:52:25.348Z,20.65
2022-09-04T18:55:10.653Z,20.59
2022-09-04T18:57:57.378Z,20.61
2022-09-04T19:00:36.907Z,20.61
2022-09-04T19:03:28.480Z,20.58
2022-09-04T19:06:09.143Z,20.53
2022-09-04T19:08:47.280Z,20.56
2022-09-04T19:11:25.755Z,20.53
2022-09-04T19:14:11.458Z,20.51
2022-09-04T19:16:47.242Z,20.50
2022-09-04T19:19:34.191Z,20.46
2022-09-04T19:22:32.999Z,20.46
2022-09-04T19:25:10.165Z,20.42
2022-09-04T19:27:54.560Z,20.36
2022-09-04T19:30:36.955Z,20.35
2022-09-04T19:33:32.573Z,20.33
2022-09-04T19:36:25.744Z,20.28
2022-09-04T19:46:08.223Z,20.23
2022-09-04T19:46:19.269Z,20.18
2022-09-04T19:46:26.283Z,20.16
2022-09-04T19:52:05.012Z,20.04
2022-09-04T19:53:31.987Z,20.09
2022-09-04T19:55:28.215Z,20.03
2022-09-04T19:58:42.678Z,19.99
2022-09-04T20:01:22.138Z,19.94
2022-09-04T20:04:23.510Z,19.93
2022-09-04T20:07:00.761Z,19.92
2022-09-04T20:09:52.010Z,19.92
2022-09-04T20:12:50.761Z,19.88
2022-09-04T20:15:31.523Z,19.84
2022-09-04T20:18:36.307Z,19.82
2022-09-04T20:21:14.565Z,19.77
2022-09-04T20:24:04.580Z,19.71
2022-09-04T20:26:44.556Z,19.66
2022-09-04T20:29:20.481Z,19.70
2022-09-04T20:32:26.682Z,19.72
2022-09-04T20:35:18.089Z,19.63
2022-09-04T20:38:23.445Z,19.66
2022-09-04T20:41:37.459Z,19.64
2022-09-04T20:44:29.190Z,19.68
2022-09-04T20:52:44.775Z,19.71
2022-09-04T20:52:59.377Z,19.69
2022-09-04T20:53:38.721Z,19.70
2022-09-04T21:00:40.648Z,19.65
2022-09-04T21:03:18.063Z,19.55
2022-09-04T21:03:18.528Z,19.64
2022-09-04T21:06:27.402Z,19.61
2022-09-04T21:09:25.864Z,19.59
2022-09-04T21:12:36.875Z,19.62
2022-09-04T21:15:13.554Z,19.59
2022-09-04T21:18:35.745Z,19.67
2022-09-04T21:21:42.211Z,19.59
2022-09-04T21:24:53.387Z,19.57
2022-09-04T21:28:00.101Z,19.53
2022-09-04T21:30:51.598Z,19.57
2022-09-04T21:33:41.212Z,19.55
2022-09-04T21:36:26.701Z,19.53
2022-09-04T21:39:22.417Z,19.47
2022-09-04T21:42:26.306Z,19.41
2022-09-04T21:45:20.113Z,19.38
2022-09-04T21:48:18.285Z,19.34
2022-09-04T21:51:28.548Z,19.29
2022-09-04T21:54:16.716Z,19.24
2022-09-04T22:02:27.722Z,19.18
2022-09-04T22:02:39.059Z,19.16
2022-09-04T22:03:31.747Z,19.17
2022-09-04T22:06:52.229Z,19.16
2022-09-04T22:13:44.060Z,19.17
2022-09-04T22:13:48.212Z,19.15
2022-09-04T22:16:16.478Z,19.14
2022-09-04T22:19:16.829Z,19.14
2022-09-04T22:22:15.173Z,19.16
2022-09-04T22:25:08.649Z,19.16
2022-09-04T22:28:08.870Z,19.19
2022-09-04T22:31:07.198Z,19.20
2022-09-04T22:33:48.294Z,19.22
2022-09-04T22:37:00.520Z,19.23
2022-09-04T22:39:56.475Z,19.23
2022-09-04T22:42:32.777Z,19.23
2022-09-04T22:45:13.503Z,19.27
2022-09-04T22:48:06.031Z,19.27
2022-09-04T22:51:02.500Z,19.33
2022-09-04T22:54:04.989Z,19.39
2022-09-04T22:56:47.367Z,19.42
2022-09-04T22:59:25.819Z,19.46
2022-09-04T23:03:04.270Z,19.47
2022-09-04T23:05:25.163Z,19.53
2022-09-04T23:13:42.273Z,19.59
2022-09-04T23:14:00.921Z,19.64
2022-09-04T23:14:36.030Z,19.72
2022-09-04T23:17:11.906Z,19.74
2022-09-04T23:26:34.810Z,19.80
2022-09-04T23:26:45.163Z,19.88
2022-09-04T23:27:01.035Z,19.93
2022-09-04T23:30:03.517Z,19.90
2022-09-04T23:33:27.644Z,20.08
2022-09-04T23:36:01.327Z,20.15
2022-09-04T23:38:58.494Z,20.21
2022-09-04T23:41:52.694Z,20.26
2022-09-04T23:44:35.458Z,20.27
2022-09-04T23:47:46.461Z,20.36
2022-09-04T23:50:41.237Z,20.43
2022-09-04T23:53:27.029Z,20.50
2022-09-04T23:56:21.791Z,20.58
2022-09-04T23:59:20.971Z,20.63
